<?xml version="1.0" encoding="UTF-8" standalone="no" ?>
<gpx xmlns="http://www.topografix.com/GPX/1/1" xmlns:xsi="http://www.w3.org/2001/XMLSchema-instance" xsi:schemaLocation="http://www.topografix.com/GPX/1/1 http://www.topografix.com/GPX/1/1/gpx.xsd" version="1.1" creator="VisuGPX - https://www.visugpx.com">
  <metadata>
    <name>20120327_Parilly</name>
    <desc><![CDATA[parilly]]></desc>
  </metadata>
  <trk>
    <name><![CDATA[2012-03-27 18:39]]></name>
    <desc><![CDATA[<h1>OruxMaps</h1><br /><hr align="center" width="480" style="height: 2px; width: 517px"/><h2>Nom: 2012-03-27 18:39</h2><br /><p>Temps de départ: 03/27/2012 18:39</p><p>Temps d'arrivée: 03/27/2012 20:33</p><p>Distance: 10,6 km (01:54)</p><p>Temps déplacement: 01:43</p><p>Vitesse moyenne: 5,6 km/h</p><p>Vitesse moyenne: 6,1 km/h</p><p>Vitess Max.: 9,7 km/h</p><p>Altitude minimale: 223 m</p><p>Altitude maximale: 278 m</p><p>Vitesse d'élévation: 245,1 m/h</p><p>Vitesse de descente: -266,3 m/h</p><p>Gain Altitude: 211 m</p><p>Perte Altitude: -214 m</p><p>Temps d'élévation: 00:51</p><p>Temps de descente: 00:48</p><hr align="center" width="480" style="height: 2px; width: 517px"/>]]></desc>
    <trkseg>
      <trkpt lat="45.71804" lon="4.90832">
        <ele>253</ele>
        <time>2012-03-27T16:39:29Z</time>
      </trkpt>
      <trkpt lat="45.71822" lon="4.90849">
        <ele>247.5039</ele>
        <time>2012-03-27T16:39:33Z</time>
      </trkpt>
      <trkpt lat="45.71804" lon="4.90839">
        <ele>247.62793</ele>
        <time>2012-03-27T16:39:34Z</time>
      </trkpt>
      <trkpt lat="45.71821" lon="4.90829">
        <ele>248.57187</ele>
        <time>2012-03-27T16:39:39Z</time>
      </trkpt>
      <trkpt lat="45.7183" lon="4.90806">
        <ele>247.2211</ele>
        <time>2012-03-27T16:39:53Z</time>
      </trkpt>
      <trkpt lat="45.71837" lon="4.90781">
        <ele>244.6545</ele>
        <time>2012-03-27T16:40:05Z</time>
      </trkpt>
      <trkpt lat="45.71846" lon="4.90759">
        <ele>242.22214</ele>
        <time>2012-03-27T16:40:16Z</time>
      </trkpt>
      <trkpt lat="45.71859" lon="4.90737">
        <ele>242.97067</ele>
        <time>2012-03-27T16:40:29Z</time>
      </trkpt>
      <trkpt lat="45.71868" lon="4.90713">
        <ele>244.77962</ele>
        <time>2012-03-27T16:40:42Z</time>
      </trkpt>
      <trkpt lat="45.71874" lon="4.90688">
        <ele>246.60849</ele>
        <time>2012-03-27T16:40:52Z</time>
      </trkpt>
      <trkpt lat="45.71878" lon="4.90662">
        <ele>252.11206</ele>
        <time>2012-03-27T16:41:09Z</time>
      </trkpt>
      <trkpt lat="45.71886" lon="4.90638">
        <ele>249.43782</ele>
        <time>2012-03-27T16:41:21Z</time>
      </trkpt>
      <trkpt lat="45.71894" lon="4.90615">
        <ele>245.77773</ele>
        <time>2012-03-27T16:41:32Z</time>
      </trkpt>
      <trkpt lat="45.71886" lon="4.90589">
        <ele>245.35527</ele>
        <time>2012-03-27T16:41:41Z</time>
      </trkpt>
      <trkpt lat="45.71879" lon="4.90565">
        <ele>246.73433</ele>
        <time>2012-03-27T16:41:53Z</time>
      </trkpt>
      <trkpt lat="45.71868" lon="4.90544">
        <ele>244.91132</ele>
        <time>2012-03-27T16:42:09Z</time>
      </trkpt>
      <trkpt lat="45.71861" lon="4.9052">
        <ele>243.59824</ele>
        <time>2012-03-27T16:42:22Z</time>
      </trkpt>
      <trkpt lat="45.71855" lon="4.90495">
        <ele>241.13925</ele>
        <time>2012-03-27T16:42:36Z</time>
      </trkpt>
      <trkpt lat="45.71849" lon="4.9047">
        <ele>238.9584</ele>
        <time>2012-03-27T16:42:48Z</time>
      </trkpt>
      <trkpt lat="45.71837" lon="4.9045">
        <ele>238.26886</ele>
        <time>2012-03-27T16:43:01Z</time>
      </trkpt>
      <trkpt lat="45.71826" lon="4.90427">
        <ele>238.93973</ele>
        <time>2012-03-27T16:43:21Z</time>
      </trkpt>
      <trkpt lat="45.71819" lon="4.904">
        <ele>244.38011</ele>
        <time>2012-03-27T16:43:30Z</time>
      </trkpt>
      <trkpt lat="45.71824" lon="4.90375">
        <ele>246.3517</ele>
        <time>2012-03-27T16:43:40Z</time>
      </trkpt>
      <trkpt lat="45.71822" lon="4.90349">
        <ele>248.08878</ele>
        <time>2012-03-27T16:43:52Z</time>
      </trkpt>
      <trkpt lat="45.71821" lon="4.90322">
        <ele>246.70447</ele>
        <time>2012-03-27T16:44:04Z</time>
      </trkpt>
      <trkpt lat="45.71811" lon="4.90298">
        <ele>247.22073</ele>
        <time>2012-03-27T16:44:18Z</time>
      </trkpt>
      <trkpt lat="45.71804" lon="4.90273">
        <ele>243.82469</ele>
        <time>2012-03-27T16:44:30Z</time>
      </trkpt>
      <trkpt lat="45.71795" lon="4.90247">
        <ele>244.61786</ele>
        <time>2012-03-27T16:44:47Z</time>
      </trkpt>
      <trkpt lat="45.7179" lon="4.9022">
        <ele>240.55557</ele>
        <time>2012-03-27T16:45:03Z</time>
      </trkpt>
      <trkpt lat="45.71785" lon="4.90194">
        <ele>239.9667</ele>
        <time>2012-03-27T16:45:12Z</time>
      </trkpt>
      <trkpt lat="45.71769" lon="4.90176">
        <ele>238.37952</ele>
        <time>2012-03-27T16:45:22Z</time>
      </trkpt>
      <trkpt lat="45.7176" lon="4.90151">
        <ele>238.0016</ele>
        <time>2012-03-27T16:45:32Z</time>
      </trkpt>
      <trkpt lat="45.71747" lon="4.90131">
        <ele>237.09813</ele>
        <time>2012-03-27T16:45:44Z</time>
      </trkpt>
      <trkpt lat="45.71739" lon="4.90105">
        <ele>233.48122</ele>
        <time>2012-03-27T16:45:57Z</time>
      </trkpt>
      <trkpt lat="45.71732" lon="4.9008">
        <ele>238.05266</ele>
        <time>2012-03-27T16:46:07Z</time>
      </trkpt>
      <trkpt lat="45.71727" lon="4.90053">
        <ele>235.4679</ele>
        <time>2012-03-27T16:46:21Z</time>
      </trkpt>
      <trkpt lat="45.71714" lon="4.90033">
        <ele>233.27875</ele>
        <time>2012-03-27T16:46:32Z</time>
      </trkpt>
      <trkpt lat="45.71708" lon="4.90008">
        <ele>234.0485</ele>
        <time>2012-03-27T16:46:46Z</time>
      </trkpt>
      <trkpt lat="45.71701" lon="4.89982">
        <ele>233.85037</ele>
        <time>2012-03-27T16:46:56Z</time>
      </trkpt>
      <trkpt lat="45.7169" lon="4.89961">
        <ele>236.65533</ele>
        <time>2012-03-27T16:47:09Z</time>
      </trkpt>
      <trkpt lat="45.71692" lon="4.89934">
        <ele>234.52045</ele>
        <time>2012-03-27T16:47:22Z</time>
      </trkpt>
      <trkpt lat="45.71703" lon="4.89914">
        <ele>229.52763</ele>
        <time>2012-03-27T16:47:33Z</time>
      </trkpt>
      <trkpt lat="45.71719" lon="4.899">
        <ele>232.11673</ele>
        <time>2012-03-27T16:47:48Z</time>
      </trkpt>
      <trkpt lat="45.71735" lon="4.89916">
        <ele>230.1785</ele>
        <time>2012-03-27T16:48:01Z</time>
      </trkpt>
      <trkpt lat="45.71744" lon="4.89939">
        <ele>233.14166</ele>
        <time>2012-03-27T16:48:14Z</time>
      </trkpt>
      <trkpt lat="45.71752" lon="4.89962">
        <ele>232.14146</ele>
        <time>2012-03-27T16:48:24Z</time>
      </trkpt>
      <trkpt lat="45.71756" lon="4.89988">
        <ele>232.42921</ele>
        <time>2012-03-27T16:48:36Z</time>
      </trkpt>
      <trkpt lat="45.71761" lon="4.90013">
        <ele>232.25667</ele>
        <time>2012-03-27T16:48:52Z</time>
      </trkpt>
      <trkpt lat="45.71775" lon="4.90031">
        <ele>233.61647</ele>
        <time>2012-03-27T16:49:03Z</time>
      </trkpt>
      <trkpt lat="45.71782" lon="4.90055">
        <ele>232.6361</ele>
        <time>2012-03-27T16:49:16Z</time>
      </trkpt>
      <trkpt lat="45.71791" lon="4.90078">
        <ele>231.6513</ele>
        <time>2012-03-27T16:49:26Z</time>
      </trkpt>
      <trkpt lat="45.71801" lon="4.90102">
        <ele>229.15222</ele>
        <time>2012-03-27T16:49:38Z</time>
      </trkpt>
      <trkpt lat="45.7181" lon="4.90124">
        <ele>228.89246</ele>
        <time>2012-03-27T16:49:50Z</time>
      </trkpt>
      <trkpt lat="45.71817" lon="4.90148">
        <ele>226.62569</ele>
        <time>2012-03-27T16:50:03Z</time>
      </trkpt>
      <trkpt lat="45.71826" lon="4.90172">
        <ele>226.76674</ele>
        <time>2012-03-27T16:50:18Z</time>
      </trkpt>
      <trkpt lat="45.71838" lon="4.90192">
        <ele>228.08759</ele>
        <time>2012-03-27T16:50:30Z</time>
      </trkpt>
      <trkpt lat="45.71853" lon="4.90212">
        <ele>229.48459</ele>
        <time>2012-03-27T16:50:39Z</time>
      </trkpt>
      <trkpt lat="45.71862" lon="4.90235">
        <ele>230.5472</ele>
        <time>2012-03-27T16:50:51Z</time>
      </trkpt>
      <trkpt lat="45.71867" lon="4.90262">
        <ele>231.07205</ele>
        <time>2012-03-27T16:51:06Z</time>
      </trkpt>
      <trkpt lat="45.71877" lon="4.90284">
        <ele>230.03516</ele>
        <time>2012-03-27T16:51:17Z</time>
      </trkpt>
      <trkpt lat="45.71891" lon="4.90302">
        <ele>234.67505</ele>
        <time>2012-03-27T16:51:29Z</time>
      </trkpt>
      <trkpt lat="45.7191" lon="4.90305">
        <ele>236.71658</ele>
        <time>2012-03-27T16:51:56Z</time>
      </trkpt>
      <trkpt lat="45.71928" lon="4.90294">
        <ele>239.2902</ele>
        <time>2012-03-27T16:52:04Z</time>
      </trkpt>
      <trkpt lat="45.71944" lon="4.90281">
        <ele>239.94872</ele>
        <time>2012-03-27T16:52:12Z</time>
      </trkpt>
      <trkpt lat="45.71959" lon="4.90263">
        <ele>241.00986</ele>
        <time>2012-03-27T16:52:26Z</time>
      </trkpt>
      <trkpt lat="45.71974" lon="4.90245">
        <ele>240.64348</ele>
        <time>2012-03-27T16:52:34Z</time>
      </trkpt>
      <trkpt lat="45.71988" lon="4.90227">
        <ele>242.94612</ele>
        <time>2012-03-27T16:52:51Z</time>
      </trkpt>
      <trkpt lat="45.72006" lon="4.9022">
        <ele>241.5541</ele>
        <time>2012-03-27T16:53:07Z</time>
      </trkpt>
      <trkpt lat="45.72025" lon="4.90211">
        <ele>240.9887</ele>
        <time>2012-03-27T16:53:23Z</time>
      </trkpt>
      <trkpt lat="45.72046" lon="4.90202">
        <ele>237.55</ele>
        <time>2012-03-27T16:53:38Z</time>
      </trkpt>
      <trkpt lat="45.72065" lon="4.902">
        <ele>236.09532</ele>
        <time>2012-03-27T16:53:45Z</time>
      </trkpt>
      <trkpt lat="45.72084" lon="4.90199">
        <ele>236.16208</ele>
        <time>2012-03-27T16:53:56Z</time>
      </trkpt>
      <trkpt lat="45.72102" lon="4.90207">
        <ele>234.77025</ele>
        <time>2012-03-27T16:54:08Z</time>
      </trkpt>
      <trkpt lat="45.72117" lon="4.90225">
        <ele>233.18951</ele>
        <time>2012-03-27T16:54:21Z</time>
      </trkpt>
      <trkpt lat="45.72125" lon="4.9025">
        <ele>229.86974</ele>
        <time>2012-03-27T16:54:31Z</time>
      </trkpt>
      <trkpt lat="45.72132" lon="4.90274">
        <ele>227.36871</ele>
        <time>2012-03-27T16:54:43Z</time>
      </trkpt>
      <trkpt lat="45.72142" lon="4.90297">
        <ele>226.1841</ele>
        <time>2012-03-27T16:54:55Z</time>
      </trkpt>
      <trkpt lat="45.72157" lon="4.90314">
        <ele>224.26558</ele>
        <time>2012-03-27T16:55:05Z</time>
      </trkpt>
      <trkpt lat="45.72164" lon="4.90339">
        <ele>223.48604</ele>
        <time>2012-03-27T16:55:18Z</time>
      </trkpt>
      <trkpt lat="45.72183" lon="4.90352">
        <ele>226.2033</ele>
        <time>2012-03-27T16:55:31Z</time>
      </trkpt>
      <trkpt lat="45.72201" lon="4.90363">
        <ele>227.7144</ele>
        <time>2012-03-27T16:55:41Z</time>
      </trkpt>
      <trkpt lat="45.72218" lon="4.90376">
        <ele>229.4395</ele>
        <time>2012-03-27T16:55:54Z</time>
      </trkpt>
      <trkpt lat="45.72237" lon="4.9038">
        <ele>234.1908</ele>
        <time>2012-03-27T16:56:11Z</time>
      </trkpt>
      <trkpt lat="45.72252" lon="4.90365">
        <ele>245.84113</ele>
        <time>2012-03-27T16:56:29Z</time>
      </trkpt>
      <trkpt lat="45.72269" lon="4.90354">
        <ele>249.23273</ele>
        <time>2012-03-27T16:56:47Z</time>
      </trkpt>
      <trkpt lat="45.72267" lon="4.90328">
        <ele>255.35771</ele>
        <time>2012-03-27T16:57:10Z</time>
      </trkpt>
      <trkpt lat="45.72266" lon="4.90302">
        <ele>255.90434</ele>
        <time>2012-03-27T16:57:36Z</time>
      </trkpt>
      <trkpt lat="45.72255" lon="4.90279">
        <ele>255.02101</ele>
        <time>2012-03-27T16:57:55Z</time>
      </trkpt>
      <trkpt lat="45.72255" lon="4.90253">
        <ele>258.0516</ele>
        <time>2012-03-27T16:58:04Z</time>
      </trkpt>
      <trkpt lat="45.72254" lon="4.90226">
        <ele>259.8903</ele>
        <time>2012-03-27T16:58:14Z</time>
      </trkpt>
      <trkpt lat="45.72253" lon="4.90199">
        <ele>259.81686</ele>
        <time>2012-03-27T16:58:26Z</time>
      </trkpt>
      <trkpt lat="45.7224" lon="4.90181">
        <ele>260.4072</ele>
        <time>2012-03-27T16:58:38Z</time>
      </trkpt>
      <trkpt lat="45.72238" lon="4.90153">
        <ele>259.32083</ele>
        <time>2012-03-27T16:58:49Z</time>
      </trkpt>
      <trkpt lat="45.7225" lon="4.90133">
        <ele>253.6995</ele>
        <time>2012-03-27T16:59:05Z</time>
      </trkpt>
      <trkpt lat="45.72251" lon="4.90106">
        <ele>252.9891</ele>
        <time>2012-03-27T16:59:14Z</time>
      </trkpt>
      <trkpt lat="45.72244" lon="4.90081">
        <ele>252.58717</ele>
        <time>2012-03-27T16:59:24Z</time>
      </trkpt>
      <trkpt lat="45.72247" lon="4.90056">
        <ele>250.06374</ele>
        <time>2012-03-27T16:59:34Z</time>
      </trkpt>
      <trkpt lat="45.72239" lon="4.90032">
        <ele>250.04608</ele>
        <time>2012-03-27T16:59:44Z</time>
      </trkpt>
      <trkpt lat="45.72257" lon="4.90028">
        <ele>245.7061</ele>
        <time>2012-03-27T17:00:16Z</time>
      </trkpt>
      <trkpt lat="45.72274" lon="4.90041">
        <ele>244.99792</ele>
        <time>2012-03-27T17:00:29Z</time>
      </trkpt>
      <trkpt lat="45.72283" lon="4.90018">
        <ele>251.03488</ele>
        <time>2012-03-27T17:00:59Z</time>
      </trkpt>
      <trkpt lat="45.72264" lon="4.90015">
        <ele>251.09076</ele>
        <time>2012-03-27T17:01:23Z</time>
      </trkpt>
      <trkpt lat="45.72246" lon="4.9001">
        <ele>243.87965</ele>
        <time>2012-03-27T17:01:34Z</time>
      </trkpt>
      <trkpt lat="45.72264" lon="4.90005">
        <ele>242.41829</ele>
        <time>2012-03-27T17:02:06Z</time>
      </trkpt>
      <trkpt lat="45.72281" lon="4.8999">
        <ele>246.64008</ele>
        <time>2012-03-27T17:02:49Z</time>
      </trkpt>
      <trkpt lat="45.72283" lon="4.89963">
        <ele>249.26366</ele>
        <time>2012-03-27T17:03:16Z</time>
      </trkpt>
      <trkpt lat="45.72277" lon="4.89938">
        <ele>251.80551</ele>
        <time>2012-03-27T17:03:33Z</time>
      </trkpt>
      <trkpt lat="45.72286" lon="4.89912">
        <ele>247.82855</ele>
        <time>2012-03-27T17:03:44Z</time>
      </trkpt>
      <trkpt lat="45.72304" lon="4.89902">
        <ele>248.12424</ele>
        <time>2012-03-27T17:04:19Z</time>
      </trkpt>
      <trkpt lat="45.72313" lon="4.89879">
        <ele>249.59038</ele>
        <time>2012-03-27T17:04:35Z</time>
      </trkpt>
      <trkpt lat="45.7232" lon="4.89854">
        <ele>253.77315</ele>
        <time>2012-03-27T17:04:51Z</time>
      </trkpt>
      <trkpt lat="45.7232" lon="4.89828">
        <ele>256.2773</ele>
        <time>2012-03-27T17:05:03Z</time>
      </trkpt>
      <trkpt lat="45.72331" lon="4.89807">
        <ele>254.41083</ele>
        <time>2012-03-27T17:05:15Z</time>
      </trkpt>
      <trkpt lat="45.72328" lon="4.8978">
        <ele>253.3532</ele>
        <time>2012-03-27T17:05:32Z</time>
      </trkpt>
      <trkpt lat="45.7232" lon="4.89756">
        <ele>254.99352</ele>
        <time>2012-03-27T17:05:46Z</time>
      </trkpt>
      <trkpt lat="45.72315" lon="4.89731">
        <ele>252.85248</ele>
        <time>2012-03-27T17:05:56Z</time>
      </trkpt>
      <trkpt lat="45.72309" lon="4.89706">
        <ele>252.62904</ele>
        <time>2012-03-27T17:06:10Z</time>
      </trkpt>
      <trkpt lat="45.72308" lon="4.89681">
        <ele>246.88493</ele>
        <time>2012-03-27T17:06:53Z</time>
      </trkpt>
      <trkpt lat="45.72303" lon="4.89654">
        <ele>246.89052</ele>
        <time>2012-03-27T17:07:03Z</time>
      </trkpt>
      <trkpt lat="45.72302" lon="4.89628">
        <ele>247.70496</ele>
        <time>2012-03-27T17:07:17Z</time>
      </trkpt>
      <trkpt lat="45.72293" lon="4.89606">
        <ele>246.64339</ele>
        <time>2012-03-27T17:07:26Z</time>
      </trkpt>
      <trkpt lat="45.72312" lon="4.89598">
        <ele>241.52118</ele>
        <time>2012-03-27T17:08:00Z</time>
      </trkpt>
      <trkpt lat="45.72331" lon="4.89602">
        <ele>241.8113</ele>
        <time>2012-03-27T17:08:18Z</time>
      </trkpt>
      <trkpt lat="45.72349" lon="4.89601">
        <ele>244.53127</ele>
        <time>2012-03-27T17:08:38Z</time>
      </trkpt>
      <trkpt lat="45.72359" lon="4.89623">
        <ele>246.22232</ele>
        <time>2012-03-27T17:08:55Z</time>
      </trkpt>
      <trkpt lat="45.72357" lon="4.89649">
        <ele>252.29646</ele>
        <time>2012-03-27T17:09:27Z</time>
      </trkpt>
      <trkpt lat="45.72355" lon="4.89675">
        <ele>252.49922</ele>
        <time>2012-03-27T17:09:38Z</time>
      </trkpt>
      <trkpt lat="45.72357" lon="4.89701">
        <ele>252.49065</ele>
        <time>2012-03-27T17:09:48Z</time>
      </trkpt>
      <trkpt lat="45.72353" lon="4.89726">
        <ele>254.7753</ele>
        <time>2012-03-27T17:10:00Z</time>
      </trkpt>
      <trkpt lat="45.72353" lon="4.89752">
        <ele>253.6257</ele>
        <time>2012-03-27T17:10:12Z</time>
      </trkpt>
      <trkpt lat="45.72367" lon="4.89768">
        <ele>254.6173</ele>
        <time>2012-03-27T17:10:23Z</time>
      </trkpt>
      <trkpt lat="45.72361" lon="4.89794">
        <ele>253.90872</ele>
        <time>2012-03-27T17:10:37Z</time>
      </trkpt>
      <trkpt lat="45.72355" lon="4.8982">
        <ele>257.36063</ele>
        <time>2012-03-27T17:10:50Z</time>
      </trkpt>
      <trkpt lat="45.72347" lon="4.89846">
        <ele>261.28992</ele>
        <time>2012-03-27T17:11:04Z</time>
      </trkpt>
      <trkpt lat="45.72345" lon="4.89873">
        <ele>261.21463</ele>
        <time>2012-03-27T17:11:16Z</time>
      </trkpt>
      <trkpt lat="45.72356" lon="4.89894">
        <ele>257.24805</ele>
        <time>2012-03-27T17:12:37Z</time>
      </trkpt>
      <trkpt lat="45.72347" lon="4.89918">
        <ele>262.6824</ele>
        <time>2012-03-27T17:12:56Z</time>
      </trkpt>
      <trkpt lat="45.72345" lon="4.89945">
        <ele>263.92712</ele>
        <time>2012-03-27T17:13:12Z</time>
      </trkpt>
      <trkpt lat="45.72341" lon="4.89972">
        <ele>261.00632</ele>
        <time>2012-03-27T17:13:25Z</time>
      </trkpt>
      <trkpt lat="45.72338" lon="4.89999">
        <ele>257.67172</ele>
        <time>2012-03-27T17:13:36Z</time>
      </trkpt>
      <trkpt lat="45.72342" lon="4.90025">
        <ele>255.05354</ele>
        <time>2012-03-27T17:13:50Z</time>
      </trkpt>
      <trkpt lat="45.72348" lon="4.9005">
        <ele>256.12952</ele>
        <time>2012-03-27T17:14:03Z</time>
      </trkpt>
      <trkpt lat="45.7235" lon="4.90076">
        <ele>256.8886</ele>
        <time>2012-03-27T17:14:15Z</time>
      </trkpt>
      <trkpt lat="45.72351" lon="4.90103">
        <ele>259.46198</ele>
        <time>2012-03-27T17:14:27Z</time>
      </trkpt>
      <trkpt lat="45.72347" lon="4.90131">
        <ele>259.98557</ele>
        <time>2012-03-27T17:14:36Z</time>
      </trkpt>
      <trkpt lat="45.72334" lon="4.9015">
        <ele>258.29926</ele>
        <time>2012-03-27T17:14:47Z</time>
      </trkpt>
      <trkpt lat="45.72327" lon="4.90176">
        <ele>260.4726</ele>
        <time>2012-03-27T17:15:05Z</time>
      </trkpt>
      <trkpt lat="45.72323" lon="4.90202">
        <ele>262.24643</ele>
        <time>2012-03-27T17:15:16Z</time>
      </trkpt>
      <trkpt lat="45.72317" lon="4.90226">
        <ele>264.74185</ele>
        <time>2012-03-27T17:15:28Z</time>
      </trkpt>
      <trkpt lat="45.72311" lon="4.90251">
        <ele>265.7134</ele>
        <time>2012-03-27T17:15:43Z</time>
      </trkpt>
      <trkpt lat="45.72314" lon="4.9028">
        <ele>266.96585</ele>
        <time>2012-03-27T17:15:53Z</time>
      </trkpt>
      <trkpt lat="45.72314" lon="4.90307">
        <ele>273.7065</ele>
        <time>2012-03-27T17:16:06Z</time>
      </trkpt>
      <trkpt lat="45.72313" lon="4.90334">
        <ele>274.9609</ele>
        <time>2012-03-27T17:16:18Z</time>
      </trkpt>
      <trkpt lat="45.72316" lon="4.90359">
        <ele>276.3097</ele>
        <time>2012-03-27T17:16:30Z</time>
      </trkpt>
      <trkpt lat="45.72323" lon="4.90383">
        <ele>272.84393</ele>
        <time>2012-03-27T17:16:39Z</time>
      </trkpt>
      <trkpt lat="45.72335" lon="4.90405">
        <ele>269.87424</ele>
        <time>2012-03-27T17:16:50Z</time>
      </trkpt>
      <trkpt lat="45.7235" lon="4.90419">
        <ele>266.8468</ele>
        <time>2012-03-27T17:16:58Z</time>
      </trkpt>
      <trkpt lat="45.72363" lon="4.90398">
        <ele>268.09827</ele>
        <time>2012-03-27T17:17:15Z</time>
      </trkpt>
      <trkpt lat="45.72371" lon="4.90375">
        <ele>271.3428</ele>
        <time>2012-03-27T17:17:28Z</time>
      </trkpt>
      <trkpt lat="45.72379" lon="4.90351">
        <ele>273.54248</ele>
        <time>2012-03-27T17:17:39Z</time>
      </trkpt>
      <trkpt lat="45.7239" lon="4.90329">
        <ele>271.35107</ele>
        <time>2012-03-27T17:17:51Z</time>
      </trkpt>
      <trkpt lat="45.72394" lon="4.90302">
        <ele>265.5281</ele>
        <time>2012-03-27T17:18:04Z</time>
      </trkpt>
      <trkpt lat="45.72401" lon="4.90278">
        <ele>261.72308</ele>
        <time>2012-03-27T17:18:14Z</time>
      </trkpt>
      <trkpt lat="45.72412" lon="4.90256">
        <ele>259.53537</ele>
        <time>2012-03-27T17:18:28Z</time>
      </trkpt>
      <trkpt lat="45.72421" lon="4.90234">
        <ele>256.19653</ele>
        <time>2012-03-27T17:18:40Z</time>
      </trkpt>
      <trkpt lat="45.72435" lon="4.90215">
        <ele>257.3769</ele>
        <time>2012-03-27T17:18:52Z</time>
      </trkpt>
      <trkpt lat="45.72445" lon="4.9019">
        <ele>258.98706</ele>
        <time>2012-03-27T17:19:08Z</time>
      </trkpt>
      <trkpt lat="45.72456" lon="4.90166">
        <ele>267.26288</ele>
        <time>2012-03-27T17:19:24Z</time>
      </trkpt>
      <trkpt lat="45.72466" lon="4.90145">
        <ele>268.26965</ele>
        <time>2012-03-27T17:19:31Z</time>
      </trkpt>
      <trkpt lat="45.72485" lon="4.90132">
        <ele>267.09265</ele>
        <time>2012-03-27T17:19:40Z</time>
      </trkpt>
      <trkpt lat="45.72501" lon="4.90121">
        <ele>264.64026</ele>
        <time>2012-03-27T17:19:50Z</time>
      </trkpt>
      <trkpt lat="45.72519" lon="4.90114">
        <ele>263.38046</ele>
        <time>2012-03-27T17:20:05Z</time>
      </trkpt>
      <trkpt lat="45.72539" lon="4.90111">
        <ele>262.1987</ele>
        <time>2012-03-27T17:20:18Z</time>
      </trkpt>
      <trkpt lat="45.72559" lon="4.90106">
        <ele>261.99417</ele>
        <time>2012-03-27T17:20:29Z</time>
      </trkpt>
      <trkpt lat="45.72574" lon="4.90091">
        <ele>262.4647</ele>
        <time>2012-03-27T17:20:43Z</time>
      </trkpt>
      <trkpt lat="45.72589" lon="4.90071">
        <ele>263.4403</ele>
        <time>2012-03-27T17:20:52Z</time>
      </trkpt>
      <trkpt lat="45.72598" lon="4.90043">
        <ele>261.91623</ele>
        <time>2012-03-27T17:21:18Z</time>
      </trkpt>
      <trkpt lat="45.72598" lon="4.90015">
        <ele>259.38635</ele>
        <time>2012-03-27T17:21:27Z</time>
      </trkpt>
      <trkpt lat="45.72591" lon="4.89992">
        <ele>259.7246</ele>
        <time>2012-03-27T17:21:39Z</time>
      </trkpt>
      <trkpt lat="45.72575" lon="4.89976">
        <ele>260.10388</ele>
        <time>2012-03-27T17:21:51Z</time>
      </trkpt>
      <trkpt lat="45.72558" lon="4.89963">
        <ele>259.1034</ele>
        <time>2012-03-27T17:22:03Z</time>
      </trkpt>
      <trkpt lat="45.7254" lon="4.89953">
        <ele>263.08865</ele>
        <time>2012-03-27T17:22:22Z</time>
      </trkpt>
      <trkpt lat="45.72523" lon="4.89941">
        <ele>262.41495</ele>
        <time>2012-03-27T17:22:33Z</time>
      </trkpt>
      <trkpt lat="45.72508" lon="4.89925">
        <ele>261.01038</ele>
        <time>2012-03-27T17:22:45Z</time>
      </trkpt>
      <trkpt lat="45.72493" lon="4.89908">
        <ele>260.5363</ele>
        <time>2012-03-27T17:22:55Z</time>
      </trkpt>
      <trkpt lat="45.72478" lon="4.89893">
        <ele>261.5417</ele>
        <time>2012-03-27T17:23:08Z</time>
      </trkpt>
      <trkpt lat="45.72467" lon="4.8987">
        <ele>267.4996</ele>
        <time>2012-03-27T17:23:25Z</time>
      </trkpt>
      <trkpt lat="45.72449" lon="4.89863">
        <ele>266.2811</ele>
        <time>2012-03-27T17:23:35Z</time>
      </trkpt>
      <trkpt lat="45.72433" lon="4.89851">
        <ele>267.2135</ele>
        <time>2012-03-27T17:23:46Z</time>
      </trkpt>
      <trkpt lat="45.72415" lon="4.89836">
        <ele>270.166</ele>
        <time>2012-03-27T17:24:02Z</time>
      </trkpt>
      <trkpt lat="45.72402" lon="4.89817">
        <ele>271.4612</ele>
        <time>2012-03-27T17:24:14Z</time>
      </trkpt>
      <trkpt lat="45.72412" lon="4.89795">
        <ele>269.16696</ele>
        <time>2012-03-27T17:24:22Z</time>
      </trkpt>
      <trkpt lat="45.72422" lon="4.89772">
        <ele>264.28622</ele>
        <time>2012-03-27T17:24:34Z</time>
      </trkpt>
      <trkpt lat="45.72436" lon="4.89755">
        <ele>261.93707</ele>
        <time>2012-03-27T17:24:47Z</time>
      </trkpt>
      <trkpt lat="45.72451" lon="4.89741">
        <ele>260.25037</ele>
        <time>2012-03-27T17:25:05Z</time>
      </trkpt>
      <trkpt lat="45.7247" lon="4.8973">
        <ele>258.2248</ele>
        <time>2012-03-27T17:25:14Z</time>
      </trkpt>
      <trkpt lat="45.72486" lon="4.89717">
        <ele>256.83023</ele>
        <time>2012-03-27T17:25:28Z</time>
      </trkpt>
      <trkpt lat="45.72503" lon="4.89702">
        <ele>253.26614</ele>
        <time>2012-03-27T17:25:39Z</time>
      </trkpt>
      <trkpt lat="45.72511" lon="4.89676">
        <ele>250.42865</ele>
        <time>2012-03-27T17:25:53Z</time>
      </trkpt>
      <trkpt lat="45.72497" lon="4.89658">
        <ele>253.81651</ele>
        <time>2012-03-27T17:26:17Z</time>
      </trkpt>
      <trkpt lat="45.72493" lon="4.89633">
        <ele>256.88614</ele>
        <time>2012-03-27T17:26:30Z</time>
      </trkpt>
      <trkpt lat="45.72503" lon="4.89609">
        <ele>256.22412</ele>
        <time>2012-03-27T17:26:42Z</time>
      </trkpt>
      <trkpt lat="45.72515" lon="4.89588">
        <ele>257.0951</ele>
        <time>2012-03-27T17:26:57Z</time>
      </trkpt>
      <trkpt lat="45.72531" lon="4.89574">
        <ele>260.6985</ele>
        <time>2012-03-27T17:27:11Z</time>
      </trkpt>
      <trkpt lat="45.72549" lon="4.89576">
        <ele>260.53842</ele>
        <time>2012-03-27T17:27:25Z</time>
      </trkpt>
      <trkpt lat="45.72567" lon="4.89579">
        <ele>258.12912</ele>
        <time>2012-03-27T17:27:37Z</time>
      </trkpt>
      <trkpt lat="45.72585" lon="4.89583">
        <ele>255.40752</ele>
        <time>2012-03-27T17:27:47Z</time>
      </trkpt>
      <trkpt lat="45.72603" lon="4.89588">
        <ele>259.64966</ele>
        <time>2012-03-27T17:28:03Z</time>
      </trkpt>
      <trkpt lat="45.7262" lon="4.89597">
        <ele>260.1592</ele>
        <time>2012-03-27T17:28:14Z</time>
      </trkpt>
      <trkpt lat="45.72639" lon="4.89602">
        <ele>255.27716</ele>
        <time>2012-03-27T17:28:28Z</time>
      </trkpt>
      <trkpt lat="45.72651" lon="4.89584">
        <ele>254.96478</ele>
        <time>2012-03-27T17:28:39Z</time>
      </trkpt>
      <trkpt lat="45.7265" lon="4.89555">
        <ele>257.6886</ele>
        <time>2012-03-27T17:28:52Z</time>
      </trkpt>
      <trkpt lat="45.72646" lon="4.8953">
        <ele>263.41666</ele>
        <time>2012-03-27T17:29:08Z</time>
      </trkpt>
      <trkpt lat="45.72636" lon="4.89505">
        <ele>265.13144</ele>
        <time>2012-03-27T17:29:21Z</time>
      </trkpt>
      <trkpt lat="45.72625" lon="4.89483">
        <ele>264.57568</ele>
        <time>2012-03-27T17:29:30Z</time>
      </trkpt>
      <trkpt lat="45.72615" lon="4.8946">
        <ele>266.5648</ele>
        <time>2012-03-27T17:29:44Z</time>
      </trkpt>
      <trkpt lat="45.72604" lon="4.89438">
        <ele>270.02005</ele>
        <time>2012-03-27T17:29:58Z</time>
      </trkpt>
      <trkpt lat="45.72595" lon="4.89414">
        <ele>268.37497</ele>
        <time>2012-03-27T17:30:10Z</time>
      </trkpt>
      <trkpt lat="45.72592" lon="4.89388">
        <ele>265.58972</ele>
        <time>2012-03-27T17:30:20Z</time>
      </trkpt>
      <trkpt lat="45.72584" lon="4.89364">
        <ele>257.08197</ele>
        <time>2012-03-27T17:30:31Z</time>
      </trkpt>
      <trkpt lat="45.7257" lon="4.89383">
        <ele>257.8127</ele>
        <time>2012-03-27T17:30:49Z</time>
      </trkpt>
      <trkpt lat="45.72554" lon="4.89397">
        <ele>260.1917</ele>
        <time>2012-03-27T17:31:07Z</time>
      </trkpt>
      <trkpt lat="45.72538" lon="4.89411">
        <ele>259.60934</ele>
        <time>2012-03-27T17:31:20Z</time>
      </trkpt>
      <trkpt lat="45.72523" lon="4.89428">
        <ele>260.78613</ele>
        <time>2012-03-27T17:31:37Z</time>
      </trkpt>
      <trkpt lat="45.72504" lon="4.89436">
        <ele>261.31854</ele>
        <time>2012-03-27T17:31:46Z</time>
      </trkpt>
      <trkpt lat="45.72494" lon="4.89458">
        <ele>263.88535</ele>
        <time>2012-03-27T17:32:01Z</time>
      </trkpt>
      <trkpt lat="45.72493" lon="4.89484">
        <ele>269.48816</ele>
        <time>2012-03-27T17:32:17Z</time>
      </trkpt>
      <trkpt lat="45.72501" lon="4.89508">
        <ele>269.27823</ele>
        <time>2012-03-27T17:32:30Z</time>
      </trkpt>
      <trkpt lat="45.72482" lon="4.89514">
        <ele>268.8283</ele>
        <time>2012-03-27T17:32:54Z</time>
      </trkpt>
      <trkpt lat="45.72467" lon="4.89498">
        <ele>264.40735</ele>
        <time>2012-03-27T17:33:08Z</time>
      </trkpt>
      <trkpt lat="45.7246" lon="4.89473">
        <ele>262.599</ele>
        <time>2012-03-27T17:33:24Z</time>
      </trkpt>
      <trkpt lat="45.72464" lon="4.89447">
        <ele>264.79962</ele>
        <time>2012-03-27T17:33:38Z</time>
      </trkpt>
      <trkpt lat="45.72476" lon="4.89422">
        <ele>262.25793</ele>
        <time>2012-03-27T17:34:02Z</time>
      </trkpt>
      <trkpt lat="45.72492" lon="4.89407">
        <ele>261.6108</ele>
        <time>2012-03-27T17:34:11Z</time>
      </trkpt>
      <trkpt lat="45.72509" lon="4.89394">
        <ele>264.14563</ele>
        <time>2012-03-27T17:34:23Z</time>
      </trkpt>
      <trkpt lat="45.72524" lon="4.89378">
        <ele>264.39304</ele>
        <time>2012-03-27T17:34:30Z</time>
      </trkpt>
      <trkpt lat="45.7254" lon="4.8936">
        <ele>264.6299</ele>
        <time>2012-03-27T17:34:38Z</time>
      </trkpt>
      <trkpt lat="45.72527" lon="4.89342">
        <ele>251.91454</ele>
        <time>2012-03-27T17:34:50Z</time>
      </trkpt>
      <trkpt lat="45.72509" lon="4.89338">
        <ele>247.18405</ele>
        <time>2012-03-27T17:35:07Z</time>
      </trkpt>
      <trkpt lat="45.72495" lon="4.8936">
        <ele>247.94394</ele>
        <time>2012-03-27T17:35:27Z</time>
      </trkpt>
      <trkpt lat="45.72488" lon="4.89384">
        <ele>249.40813</ele>
        <time>2012-03-27T17:35:52Z</time>
      </trkpt>
      <trkpt lat="45.72473" lon="4.89402">
        <ele>250.6515</ele>
        <time>2012-03-27T17:36:02Z</time>
      </trkpt>
      <trkpt lat="45.72463" lon="4.89425">
        <ele>251.72685</ele>
        <time>2012-03-27T17:36:13Z</time>
      </trkpt>
      <trkpt lat="45.72455" lon="4.89449">
        <ele>256.9893</ele>
        <time>2012-03-27T17:36:29Z</time>
      </trkpt>
      <trkpt lat="45.72454" lon="4.89423">
        <ele>259.59146</ele>
        <time>2012-03-27T17:36:58Z</time>
      </trkpt>
      <trkpt lat="45.72464" lon="4.89401">
        <ele>262.1228</ele>
        <time>2012-03-27T17:37:18Z</time>
      </trkpt>
      <trkpt lat="45.72476" lon="4.89381">
        <ele>260.0288</ele>
        <time>2012-03-27T17:37:31Z</time>
      </trkpt>
      <trkpt lat="45.72464" lon="4.89361">
        <ele>252.18501</ele>
        <time>2012-03-27T17:37:55Z</time>
      </trkpt>
      <trkpt lat="45.72443" lon="4.89364">
        <ele>248.47736</ele>
        <time>2012-03-27T17:38:12Z</time>
      </trkpt>
      <trkpt lat="45.72426" lon="4.89347">
        <ele>246.85818</ele>
        <time>2012-03-27T17:38:35Z</time>
      </trkpt>
      <trkpt lat="45.72422" lon="4.89319">
        <ele>245.4138</ele>
        <time>2012-03-27T17:38:45Z</time>
      </trkpt>
      <trkpt lat="45.72425" lon="4.89293">
        <ele>243.62244</ele>
        <time>2012-03-27T17:38:58Z</time>
      </trkpt>
      <trkpt lat="45.72431" lon="4.89267">
        <ele>244.0293</ele>
        <time>2012-03-27T17:39:11Z</time>
      </trkpt>
      <trkpt lat="45.72451" lon="4.89269">
        <ele>239.01677</ele>
        <time>2012-03-27T17:39:28Z</time>
      </trkpt>
      <trkpt lat="45.72468" lon="4.89275">
        <ele>240.34677</ele>
        <time>2012-03-27T17:39:43Z</time>
      </trkpt>
      <trkpt lat="45.72486" lon="4.89282">
        <ele>242.46341</ele>
        <time>2012-03-27T17:39:56Z</time>
      </trkpt>
      <trkpt lat="45.72503" lon="4.89293">
        <ele>242.49095</ele>
        <time>2012-03-27T17:40:08Z</time>
      </trkpt>
      <trkpt lat="45.72498" lon="4.89318">
        <ele>244.58766</ele>
        <time>2012-03-27T17:40:28Z</time>
      </trkpt>
      <trkpt lat="45.7248" lon="4.89326">
        <ele>244.10419</ele>
        <time>2012-03-27T17:40:42Z</time>
      </trkpt>
      <trkpt lat="45.72471" lon="4.8935">
        <ele>251.3403</ele>
        <time>2012-03-27T17:41:07Z</time>
      </trkpt>
      <trkpt lat="45.72462" lon="4.89373">
        <ele>257.31998</ele>
        <time>2012-03-27T17:41:21Z</time>
      </trkpt>
      <trkpt lat="45.7245" lon="4.89396">
        <ele>253.88734</ele>
        <time>2012-03-27T17:41:41Z</time>
      </trkpt>
      <trkpt lat="45.72443" lon="4.89419">
        <ele>253.43848</ele>
        <time>2012-03-27T17:41:54Z</time>
      </trkpt>
      <trkpt lat="45.72448" lon="4.89446">
        <ele>253.86646</ele>
        <time>2012-03-27T17:42:10Z</time>
      </trkpt>
      <trkpt lat="45.72451" lon="4.89471">
        <ele>255.78775</ele>
        <time>2012-03-27T17:42:24Z</time>
      </trkpt>
      <trkpt lat="45.72458" lon="4.89496">
        <ele>258.91714</ele>
        <time>2012-03-27T17:42:37Z</time>
      </trkpt>
      <trkpt lat="45.7247" lon="4.89518">
        <ele>257.98648</ele>
        <time>2012-03-27T17:43:02Z</time>
      </trkpt>
      <trkpt lat="45.72486" lon="4.89532">
        <ele>261.8321</ele>
        <time>2012-03-27T17:43:13Z</time>
      </trkpt>
      <trkpt lat="45.72503" lon="4.89525">
        <ele>261.6999</ele>
        <time>2012-03-27T17:43:27Z</time>
      </trkpt>
      <trkpt lat="45.72522" lon="4.89525">
        <ele>266.10257</ele>
        <time>2012-03-27T17:43:44Z</time>
      </trkpt>
      <trkpt lat="45.72536" lon="4.8951">
        <ele>268.4231</ele>
        <time>2012-03-27T17:43:56Z</time>
      </trkpt>
      <trkpt lat="45.72549" lon="4.8949">
        <ele>269.933</ele>
        <time>2012-03-27T17:44:10Z</time>
      </trkpt>
      <trkpt lat="45.72563" lon="4.89473">
        <ele>268.30032</ele>
        <time>2012-03-27T17:44:19Z</time>
      </trkpt>
      <trkpt lat="45.72577" lon="4.89454">
        <ele>267.36685</ele>
        <time>2012-03-27T17:44:30Z</time>
      </trkpt>
      <trkpt lat="45.72591" lon="4.89437">
        <ele>266.02475</ele>
        <time>2012-03-27T17:44:39Z</time>
      </trkpt>
      <trkpt lat="45.72607" lon="4.89421">
        <ele>265.56354</ele>
        <time>2012-03-27T17:44:50Z</time>
      </trkpt>
      <trkpt lat="45.72622" lon="4.89403">
        <ele>265.9628</ele>
        <time>2012-03-27T17:45:01Z</time>
      </trkpt>
      <trkpt lat="45.72635" lon="4.89386">
        <ele>260.53152</ele>
        <time>2012-03-27T17:45:13Z</time>
      </trkpt>
      <trkpt lat="45.72649" lon="4.89369">
        <ele>261.86475</ele>
        <time>2012-03-27T17:45:28Z</time>
      </trkpt>
      <trkpt lat="45.72663" lon="4.8935">
        <ele>265.74084</ele>
        <time>2012-03-27T17:45:43Z</time>
      </trkpt>
      <trkpt lat="45.72673" lon="4.89328">
        <ele>266.32904</ele>
        <time>2012-03-27T17:45:53Z</time>
      </trkpt>
      <trkpt lat="45.72684" lon="4.89307">
        <ele>269.14624</ele>
        <time>2012-03-27T17:46:02Z</time>
      </trkpt>
      <trkpt lat="45.72694" lon="4.89283">
        <ele>266.9724</ele>
        <time>2012-03-27T17:46:16Z</time>
      </trkpt>
      <trkpt lat="45.72705" lon="4.89261">
        <ele>267.2754</ele>
        <time>2012-03-27T17:46:29Z</time>
      </trkpt>
      <trkpt lat="45.72717" lon="4.89239">
        <ele>264.1294</ele>
        <time>2012-03-27T17:46:40Z</time>
      </trkpt>
      <trkpt lat="45.72729" lon="4.89219">
        <ele>263.16647</ele>
        <time>2012-03-27T17:46:49Z</time>
      </trkpt>
      <trkpt lat="45.72744" lon="4.89202">
        <ele>261.60687</ele>
        <time>2012-03-27T17:47:00Z</time>
      </trkpt>
      <trkpt lat="45.72759" lon="4.89186">
        <ele>260.27774</ele>
        <time>2012-03-27T17:47:12Z</time>
      </trkpt>
      <trkpt lat="45.72777" lon="4.89175">
        <ele>260.76556</ele>
        <time>2012-03-27T17:47:27Z</time>
      </trkpt>
      <trkpt lat="45.72796" lon="4.89171">
        <ele>262.09702</ele>
        <time>2012-03-27T17:47:40Z</time>
      </trkpt>
      <trkpt lat="45.72811" lon="4.89186">
        <ele>255.04971</ele>
        <time>2012-03-27T17:47:52Z</time>
      </trkpt>
      <trkpt lat="45.72824" lon="4.89204">
        <ele>257.62125</ele>
        <time>2012-03-27T17:48:06Z</time>
      </trkpt>
      <trkpt lat="45.72842" lon="4.89211">
        <ele>255.63849</ele>
        <time>2012-03-27T17:48:18Z</time>
      </trkpt>
      <trkpt lat="45.72862" lon="4.89205">
        <ele>253.80794</ele>
        <time>2012-03-27T17:48:28Z</time>
      </trkpt>
      <trkpt lat="45.7288" lon="4.892">
        <ele>255.02956</ele>
        <time>2012-03-27T17:48:41Z</time>
      </trkpt>
      <trkpt lat="45.72899" lon="4.892">
        <ele>252.35934</ele>
        <time>2012-03-27T17:48:52Z</time>
      </trkpt>
      <trkpt lat="45.72917" lon="4.89208">
        <ele>250.74371</ele>
        <time>2012-03-27T17:49:04Z</time>
      </trkpt>
      <trkpt lat="45.72928" lon="4.8923">
        <ele>251.68488</ele>
        <time>2012-03-27T17:49:17Z</time>
      </trkpt>
      <trkpt lat="45.72922" lon="4.89255">
        <ele>248.90843</ele>
        <time>2012-03-27T17:49:31Z</time>
      </trkpt>
      <trkpt lat="45.72909" lon="4.89275">
        <ele>245.78316</ele>
        <time>2012-03-27T17:49:44Z</time>
      </trkpt>
      <trkpt lat="45.72893" lon="4.8929">
        <ele>251.71336</ele>
        <time>2012-03-27T17:49:56Z</time>
      </trkpt>
      <trkpt lat="45.72886" lon="4.89314">
        <ele>255.39496</ele>
        <time>2012-03-27T17:50:07Z</time>
      </trkpt>
      <trkpt lat="45.72879" lon="4.89338">
        <ele>259.3039</ele>
        <time>2012-03-27T17:50:19Z</time>
      </trkpt>
      <trkpt lat="45.72873" lon="4.89364">
        <ele>256.33344</ele>
        <time>2012-03-27T17:50:31Z</time>
      </trkpt>
      <trkpt lat="45.7286" lon="4.89384">
        <ele>249.81384</ele>
        <time>2012-03-27T17:50:45Z</time>
      </trkpt>
      <trkpt lat="45.72853" lon="4.8936">
        <ele>250.84924</ele>
        <time>2012-03-27T17:51:05Z</time>
      </trkpt>
      <trkpt lat="45.72856" lon="4.89334">
        <ele>251.25668</ele>
        <time>2012-03-27T17:51:17Z</time>
      </trkpt>
      <trkpt lat="45.72841" lon="4.89349">
        <ele>248.00984</ele>
        <time>2012-03-27T17:51:37Z</time>
      </trkpt>
      <trkpt lat="45.72837" lon="4.89374">
        <ele>246.03581</ele>
        <time>2012-03-27T17:51:51Z</time>
      </trkpt>
      <trkpt lat="45.72834" lon="4.89401">
        <ele>244.89983</ele>
        <time>2012-03-27T17:52:05Z</time>
      </trkpt>
      <trkpt lat="45.72832" lon="4.89429">
        <ele>248.37436</ele>
        <time>2012-03-27T17:52:22Z</time>
      </trkpt>
      <trkpt lat="45.72819" lon="4.89447">
        <ele>245.92928</ele>
        <time>2012-03-27T17:54:13Z</time>
      </trkpt>
      <trkpt lat="45.72833" lon="4.8943">
        <ele>249.23065</ele>
        <time>2012-03-27T17:54:56Z</time>
      </trkpt>
      <trkpt lat="45.72831" lon="4.89402">
        <ele>250.8816</ele>
        <time>2012-03-27T17:55:09Z</time>
      </trkpt>
      <trkpt lat="45.72833" lon="4.89375">
        <ele>254.95467</ele>
        <time>2012-03-27T17:55:23Z</time>
      </trkpt>
      <trkpt lat="45.72834" lon="4.89349">
        <ele>256.07016</ele>
        <time>2012-03-27T17:55:41Z</time>
      </trkpt>
      <trkpt lat="45.7284" lon="4.89323">
        <ele>259.85568</ele>
        <time>2012-03-27T17:55:55Z</time>
      </trkpt>
      <trkpt lat="45.72838" lon="4.89297">
        <ele>261.85156</ele>
        <time>2012-03-27T17:56:06Z</time>
      </trkpt>
      <trkpt lat="45.72842" lon="4.89269">
        <ele>265.53857</ele>
        <time>2012-03-27T17:56:20Z</time>
      </trkpt>
      <trkpt lat="45.72837" lon="4.89242">
        <ele>266.0019</ele>
        <time>2012-03-27T17:56:33Z</time>
      </trkpt>
      <trkpt lat="45.72832" lon="4.89215">
        <ele>258.72247</ele>
        <time>2012-03-27T17:56:42Z</time>
      </trkpt>
      <trkpt lat="45.72821" lon="4.89193">
        <ele>252.4476</ele>
        <time>2012-03-27T17:56:58Z</time>
      </trkpt>
      <trkpt lat="45.72805" lon="4.89182">
        <ele>254.9585</ele>
        <time>2012-03-27T17:57:10Z</time>
      </trkpt>
      <trkpt lat="45.72785" lon="4.8918">
        <ele>258.03098</ele>
        <time>2012-03-27T17:57:23Z</time>
      </trkpt>
      <trkpt lat="45.72767" lon="4.89184">
        <ele>260.06903</ele>
        <time>2012-03-27T17:57:32Z</time>
      </trkpt>
      <trkpt lat="45.72751" lon="4.892">
        <ele>262.93176</ele>
        <time>2012-03-27T17:57:42Z</time>
      </trkpt>
      <trkpt lat="45.72736" lon="4.89217">
        <ele>262.8614</ele>
        <time>2012-03-27T17:57:53Z</time>
      </trkpt>
      <trkpt lat="45.72722" lon="4.89235">
        <ele>265.7369</ele>
        <time>2012-03-27T17:58:04Z</time>
      </trkpt>
      <trkpt lat="45.72709" lon="4.89253">
        <ele>265.31744</ele>
        <time>2012-03-27T17:58:15Z</time>
      </trkpt>
      <trkpt lat="45.72695" lon="4.8927">
        <ele>268.1525</ele>
        <time>2012-03-27T17:58:30Z</time>
      </trkpt>
      <trkpt lat="45.72687" lon="4.89297">
        <ele>272.51697</ele>
        <time>2012-03-27T17:58:45Z</time>
      </trkpt>
      <trkpt lat="45.72677" lon="4.89318">
        <ele>273.97253</ele>
        <time>2012-03-27T17:58:54Z</time>
      </trkpt>
      <trkpt lat="45.72669" lon="4.89342">
        <ele>271.71738</ele>
        <time>2012-03-27T17:59:04Z</time>
      </trkpt>
      <trkpt lat="45.72656" lon="4.89362">
        <ele>270.03223</ele>
        <time>2012-03-27T17:59:16Z</time>
      </trkpt>
      <trkpt lat="45.72643" lon="4.8938">
        <ele>266.32468</ele>
        <time>2012-03-27T17:59:28Z</time>
      </trkpt>
      <trkpt lat="45.72628" lon="4.894">
        <ele>262.74802</ele>
        <time>2012-03-27T17:59:39Z</time>
      </trkpt>
      <trkpt lat="45.72613" lon="4.89416">
        <ele>261.77667</ele>
        <time>2012-03-27T17:59:51Z</time>
      </trkpt>
      <trkpt lat="45.72599" lon="4.89433">
        <ele>261.60226</ele>
        <time>2012-03-27T18:00:04Z</time>
      </trkpt>
      <trkpt lat="45.72582" lon="4.89444">
        <ele>263.50006</ele>
        <time>2012-03-27T18:00:17Z</time>
      </trkpt>
      <trkpt lat="45.7257" lon="4.89464">
        <ele>263.8077</ele>
        <time>2012-03-27T18:00:27Z</time>
      </trkpt>
      <trkpt lat="45.72559" lon="4.89485">
        <ele>265.7879</ele>
        <time>2012-03-27T18:00:39Z</time>
      </trkpt>
      <trkpt lat="45.72544" lon="4.89505">
        <ele>266.2912</ele>
        <time>2012-03-27T18:00:50Z</time>
      </trkpt>
      <trkpt lat="45.72532" lon="4.89525">
        <ele>266.11383</ele>
        <time>2012-03-27T18:01:02Z</time>
      </trkpt>
      <trkpt lat="45.72525" lon="4.89551">
        <ele>271.29227</ele>
        <time>2012-03-27T18:01:18Z</time>
      </trkpt>
      <trkpt lat="45.72517" lon="4.89574">
        <ele>272.73904</ele>
        <time>2012-03-27T18:01:28Z</time>
      </trkpt>
      <trkpt lat="45.72508" lon="4.89597">
        <ele>273.10388</ele>
        <time>2012-03-27T18:01:38Z</time>
      </trkpt>
      <trkpt lat="45.72494" lon="4.89618">
        <ele>273.86124</ele>
        <time>2012-03-27T18:01:48Z</time>
      </trkpt>
      <trkpt lat="45.72493" lon="4.89646">
        <ele>271.84686</ele>
        <time>2012-03-27T18:02:00Z</time>
      </trkpt>
      <trkpt lat="45.72481" lon="4.89668">
        <ele>270.90356</ele>
        <time>2012-03-27T18:02:15Z</time>
      </trkpt>
      <trkpt lat="45.72472" lon="4.89692">
        <ele>269.2313</ele>
        <time>2012-03-27T18:02:28Z</time>
      </trkpt>
      <trkpt lat="45.72458" lon="4.8971">
        <ele>264.47235</ele>
        <time>2012-03-27T18:02:40Z</time>
      </trkpt>
      <trkpt lat="45.72444" lon="4.89728">
        <ele>264.33362</ele>
        <time>2012-03-27T18:02:52Z</time>
      </trkpt>
      <trkpt lat="45.7243" lon="4.89745">
        <ele>261.69373</ele>
        <time>2012-03-27T18:03:03Z</time>
      </trkpt>
      <trkpt lat="45.72413" lon="4.89759">
        <ele>263.4238</ele>
        <time>2012-03-27T18:03:17Z</time>
      </trkpt>
      <trkpt lat="45.72395" lon="4.89776">
        <ele>264.69455</ele>
        <time>2012-03-27T18:03:30Z</time>
      </trkpt>
      <trkpt lat="45.72377" lon="4.89787">
        <ele>266.1244</ele>
        <time>2012-03-27T18:03:43Z</time>
      </trkpt>
      <trkpt lat="45.7236" lon="4.89802">
        <ele>268.82816</ele>
        <time>2012-03-27T18:03:54Z</time>
      </trkpt>
      <trkpt lat="45.72348" lon="4.89822">
        <ele>268.4966</ele>
        <time>2012-03-27T18:04:06Z</time>
      </trkpt>
      <trkpt lat="45.72343" lon="4.89848">
        <ele>265.3141</ele>
        <time>2012-03-27T18:04:17Z</time>
      </trkpt>
      <trkpt lat="45.72336" lon="4.89873">
        <ele>266.8292</ele>
        <time>2012-03-27T18:04:30Z</time>
      </trkpt>
      <trkpt lat="45.7233" lon="4.89899">
        <ele>265.05582</ele>
        <time>2012-03-27T18:05:46Z</time>
      </trkpt>
      <trkpt lat="45.72333" lon="4.89925">
        <ele>269.17334</ele>
        <time>2012-03-27T18:06:12Z</time>
      </trkpt>
      <trkpt lat="45.72342" lon="4.89949">
        <ele>269.98035</ele>
        <time>2012-03-27T18:06:25Z</time>
      </trkpt>
      <trkpt lat="45.72356" lon="4.89968">
        <ele>272.39374</ele>
        <time>2012-03-27T18:06:42Z</time>
      </trkpt>
      <trkpt lat="45.72356" lon="4.89997">
        <ele>275.73337</ele>
        <time>2012-03-27T18:06:54Z</time>
      </trkpt>
      <trkpt lat="45.72349" lon="4.90021">
        <ele>276.12164</ele>
        <time>2012-03-27T18:07:06Z</time>
      </trkpt>
      <trkpt lat="45.72349" lon="4.9005">
        <ele>278.56882</ele>
        <time>2012-03-27T18:07:20Z</time>
      </trkpt>
      <trkpt lat="45.7235" lon="4.90078">
        <ele>275.753</ele>
        <time>2012-03-27T18:07:38Z</time>
      </trkpt>
      <trkpt lat="45.72348" lon="4.90104">
        <ele>275.89832</ele>
        <time>2012-03-27T18:07:48Z</time>
      </trkpt>
      <trkpt lat="45.72342" lon="4.90129">
        <ele>277.0225</ele>
        <time>2012-03-27T18:07:58Z</time>
      </trkpt>
      <trkpt lat="45.72338" lon="4.90157">
        <ele>276.32782</ele>
        <time>2012-03-27T18:08:10Z</time>
      </trkpt>
      <trkpt lat="45.72334" lon="4.90183">
        <ele>273.8315</ele>
        <time>2012-03-27T18:08:19Z</time>
      </trkpt>
      <trkpt lat="45.72336" lon="4.90209">
        <ele>275.75894</ele>
        <time>2012-03-27T18:08:35Z</time>
      </trkpt>
      <trkpt lat="45.72333" lon="4.90236">
        <ele>278.89957</ele>
        <time>2012-03-27T18:08:52Z</time>
      </trkpt>
      <trkpt lat="45.72337" lon="4.90263">
        <ele>276.4005</ele>
        <time>2012-03-27T18:09:07Z</time>
      </trkpt>
      <trkpt lat="45.72324" lon="4.90283">
        <ele>265.12277</ele>
        <time>2012-03-27T18:09:20Z</time>
      </trkpt>
      <trkpt lat="45.72317" lon="4.90307">
        <ele>264.26175</ele>
        <time>2012-03-27T18:09:33Z</time>
      </trkpt>
      <trkpt lat="45.72312" lon="4.90334">
        <ele>262.56476</ele>
        <time>2012-03-27T18:09:44Z</time>
      </trkpt>
      <trkpt lat="45.72308" lon="4.90361">
        <ele>258.88165</ele>
        <time>2012-03-27T18:09:55Z</time>
      </trkpt>
      <trkpt lat="45.72318" lon="4.90383">
        <ele>253.28673</ele>
        <time>2012-03-27T18:10:07Z</time>
      </trkpt>
      <trkpt lat="45.72324" lon="4.90408">
        <ele>254.34274</ele>
        <time>2012-03-27T18:10:20Z</time>
      </trkpt>
      <trkpt lat="45.72332" lon="4.90433">
        <ele>253.84947</ele>
        <time>2012-03-27T18:10:32Z</time>
      </trkpt>
      <trkpt lat="45.72332" lon="4.90461">
        <ele>259.6405</ele>
        <time>2012-03-27T18:10:45Z</time>
      </trkpt>
      <trkpt lat="45.7234" lon="4.90485">
        <ele>260.1167</ele>
        <time>2012-03-27T18:10:58Z</time>
      </trkpt>
      <trkpt lat="45.72347" lon="4.9051">
        <ele>262.02042</ele>
        <time>2012-03-27T18:11:09Z</time>
      </trkpt>
      <trkpt lat="45.7235" lon="4.90537">
        <ele>262.7512</ele>
        <time>2012-03-27T18:11:21Z</time>
      </trkpt>
      <trkpt lat="45.72365" lon="4.90554">
        <ele>261.6645</ele>
        <time>2012-03-27T18:11:33Z</time>
      </trkpt>
      <trkpt lat="45.72375" lon="4.90577">
        <ele>261.61868</ele>
        <time>2012-03-27T18:11:41Z</time>
      </trkpt>
      <trkpt lat="45.7238" lon="4.90602">
        <ele>262.74573</ele>
        <time>2012-03-27T18:11:54Z</time>
      </trkpt>
      <trkpt lat="45.72386" lon="4.90629">
        <ele>264.23688</ele>
        <time>2012-03-27T18:12:07Z</time>
      </trkpt>
      <trkpt lat="45.72392" lon="4.90653">
        <ele>262.6367</ele>
        <time>2012-03-27T18:12:17Z</time>
      </trkpt>
      <trkpt lat="45.724" lon="4.90677">
        <ele>261.87592</ele>
        <time>2012-03-27T18:12:30Z</time>
      </trkpt>
      <trkpt lat="45.72406" lon="4.90703">
        <ele>265.32822</ele>
        <time>2012-03-27T18:12:44Z</time>
      </trkpt>
      <trkpt lat="45.72408" lon="4.9073">
        <ele>266.64594</ele>
        <time>2012-03-27T18:12:56Z</time>
      </trkpt>
      <trkpt lat="45.72408" lon="4.90758">
        <ele>269.97458</ele>
        <time>2012-03-27T18:13:08Z</time>
      </trkpt>
      <trkpt lat="45.72416" lon="4.90781">
        <ele>271.1833</ele>
        <time>2012-03-27T18:13:20Z</time>
      </trkpt>
      <trkpt lat="45.72421" lon="4.90808">
        <ele>270.58557</ele>
        <time>2012-03-27T18:13:30Z</time>
      </trkpt>
      <trkpt lat="45.72428" lon="4.90834">
        <ele>268.05307</ele>
        <time>2012-03-27T18:13:40Z</time>
      </trkpt>
      <trkpt lat="45.72431" lon="4.90859">
        <ele>266.74118</ele>
        <time>2012-03-27T18:13:52Z</time>
      </trkpt>
      <trkpt lat="45.72432" lon="4.90887">
        <ele>266.09714</ele>
        <time>2012-03-27T18:14:03Z</time>
      </trkpt>
      <trkpt lat="45.72437" lon="4.90913">
        <ele>267.07742</ele>
        <time>2012-03-27T18:14:14Z</time>
      </trkpt>
      <trkpt lat="45.72444" lon="4.90939">
        <ele>264.53937</ele>
        <time>2012-03-27T18:14:24Z</time>
      </trkpt>
      <trkpt lat="45.72443" lon="4.90965">
        <ele>261.0991</ele>
        <time>2012-03-27T18:14:34Z</time>
      </trkpt>
      <trkpt lat="45.72442" lon="4.90992">
        <ele>258.55975</ele>
        <time>2012-03-27T18:14:46Z</time>
      </trkpt>
      <trkpt lat="45.72436" lon="4.91019">
        <ele>258.19577</ele>
        <time>2012-03-27T18:14:55Z</time>
      </trkpt>
      <trkpt lat="45.72435" lon="4.91046">
        <ele>257.11115</ele>
        <time>2012-03-27T18:15:09Z</time>
      </trkpt>
      <trkpt lat="45.72431" lon="4.91073">
        <ele>257.3563</ele>
        <time>2012-03-27T18:15:21Z</time>
      </trkpt>
      <trkpt lat="45.7243" lon="4.91099">
        <ele>255.68593</ele>
        <time>2012-03-27T18:15:30Z</time>
      </trkpt>
      <trkpt lat="45.72423" lon="4.91123">
        <ele>255.49243</ele>
        <time>2012-03-27T18:15:39Z</time>
      </trkpt>
      <trkpt lat="45.72416" lon="4.91151">
        <ele>257.45963</ele>
        <time>2012-03-27T18:15:52Z</time>
      </trkpt>
      <trkpt lat="45.72411" lon="4.91176">
        <ele>255.10388</ele>
        <time>2012-03-27T18:16:03Z</time>
      </trkpt>
      <trkpt lat="45.72402" lon="4.91199">
        <ele>256.2287</ele>
        <time>2012-03-27T18:16:16Z</time>
      </trkpt>
      <trkpt lat="45.72392" lon="4.91221">
        <ele>260.5111</ele>
        <time>2012-03-27T18:16:28Z</time>
      </trkpt>
      <trkpt lat="45.72379" lon="4.91241">
        <ele>259.9643</ele>
        <time>2012-03-27T18:16:41Z</time>
      </trkpt>
      <trkpt lat="45.72369" lon="4.91262">
        <ele>259.22925</ele>
        <time>2012-03-27T18:16:58Z</time>
      </trkpt>
      <trkpt lat="45.72357" lon="4.91284">
        <ele>257.7185</ele>
        <time>2012-03-27T18:17:08Z</time>
      </trkpt>
      <trkpt lat="45.72342" lon="4.91267">
        <ele>248.23564</ele>
        <time>2012-03-27T18:17:30Z</time>
      </trkpt>
      <trkpt lat="45.72346" lon="4.91241">
        <ele>246.61874</ele>
        <time>2012-03-27T18:17:41Z</time>
      </trkpt>
      <trkpt lat="45.7235" lon="4.91215">
        <ele>244.40564</ele>
        <time>2012-03-27T18:17:51Z</time>
      </trkpt>
      <trkpt lat="45.72354" lon="4.91188">
        <ele>243.4534</ele>
        <time>2012-03-27T18:18:01Z</time>
      </trkpt>
      <trkpt lat="45.72362" lon="4.91165">
        <ele>242.45792</ele>
        <time>2012-03-27T18:18:10Z</time>
      </trkpt>
      <trkpt lat="45.72366" lon="4.91138">
        <ele>240.76604</ele>
        <time>2012-03-27T18:18:22Z</time>
      </trkpt>
      <trkpt lat="45.72372" lon="4.91113">
        <ele>241.298</ele>
        <time>2012-03-27T18:18:33Z</time>
      </trkpt>
      <trkpt lat="45.72379" lon="4.91089">
        <ele>242.70366</ele>
        <time>2012-03-27T18:18:45Z</time>
      </trkpt>
      <trkpt lat="45.72385" lon="4.91063">
        <ele>245.94295</ele>
        <time>2012-03-27T18:18:56Z</time>
      </trkpt>
      <trkpt lat="45.72391" lon="4.91037">
        <ele>245.4025</ele>
        <time>2012-03-27T18:19:04Z</time>
      </trkpt>
      <trkpt lat="45.72389" lon="4.91008">
        <ele>245.63351</ele>
        <time>2012-03-27T18:19:15Z</time>
      </trkpt>
      <trkpt lat="45.72387" lon="4.90979">
        <ele>245.31445</ele>
        <time>2012-03-27T18:19:26Z</time>
      </trkpt>
      <trkpt lat="45.72386" lon="4.90953">
        <ele>245.87738</ele>
        <time>2012-03-27T18:19:39Z</time>
      </trkpt>
      <trkpt lat="45.7238" lon="4.90927">
        <ele>244.82823</ele>
        <time>2012-03-27T18:19:51Z</time>
      </trkpt>
      <trkpt lat="45.72376" lon="4.90901">
        <ele>244.23186</ele>
        <time>2012-03-27T18:20:03Z</time>
      </trkpt>
      <trkpt lat="45.72368" lon="4.90875">
        <ele>246.51894</ele>
        <time>2012-03-27T18:20:16Z</time>
      </trkpt>
      <trkpt lat="45.72355" lon="4.90858">
        <ele>250.83263</ele>
        <time>2012-03-27T18:20:28Z</time>
      </trkpt>
      <trkpt lat="45.72344" lon="4.90837">
        <ele>252.69696</ele>
        <time>2012-03-27T18:20:38Z</time>
      </trkpt>
      <trkpt lat="45.72335" lon="4.90814">
        <ele>254.38309</ele>
        <time>2012-03-27T18:20:48Z</time>
      </trkpt>
      <trkpt lat="45.72326" lon="4.9079">
        <ele>256.80524</ele>
        <time>2012-03-27T18:20:58Z</time>
      </trkpt>
      <trkpt lat="45.72316" lon="4.90769">
        <ele>256.21326</ele>
        <time>2012-03-27T18:21:07Z</time>
      </trkpt>
      <trkpt lat="45.72308" lon="4.90745">
        <ele>253.13315</ele>
        <time>2012-03-27T18:21:18Z</time>
      </trkpt>
      <trkpt lat="45.72302" lon="4.9072">
        <ele>253.2894</ele>
        <time>2012-03-27T18:21:29Z</time>
      </trkpt>
      <trkpt lat="45.72295" lon="4.90696">
        <ele>248.60818</ele>
        <time>2012-03-27T18:21:40Z</time>
      </trkpt>
      <trkpt lat="45.7229" lon="4.9067">
        <ele>244.94244</ele>
        <time>2012-03-27T18:21:47Z</time>
      </trkpt>
      <trkpt lat="45.72279" lon="4.90649">
        <ele>244.17213</ele>
        <time>2012-03-27T18:21:56Z</time>
      </trkpt>
      <trkpt lat="45.72271" lon="4.90626">
        <ele>244.60997</ele>
        <time>2012-03-27T18:22:05Z</time>
      </trkpt>
      <trkpt lat="45.72265" lon="4.906">
        <ele>242.5678</ele>
        <time>2012-03-27T18:22:14Z</time>
      </trkpt>
      <trkpt lat="45.72257" lon="4.90574">
        <ele>242.7614</ele>
        <time>2012-03-27T18:22:25Z</time>
      </trkpt>
      <trkpt lat="45.7225" lon="4.90548">
        <ele>244.29791</ele>
        <time>2012-03-27T18:22:36Z</time>
      </trkpt>
      <trkpt lat="45.72242" lon="4.90525">
        <ele>243.2901</ele>
        <time>2012-03-27T18:22:47Z</time>
      </trkpt>
      <trkpt lat="45.72233" lon="4.90501">
        <ele>248.13553</ele>
        <time>2012-03-27T18:22:59Z</time>
      </trkpt>
      <trkpt lat="45.72218" lon="4.90485">
        <ele>254.994</ele>
        <time>2012-03-27T18:23:12Z</time>
      </trkpt>
      <trkpt lat="45.72207" lon="4.90463">
        <ele>258.4176</ele>
        <time>2012-03-27T18:23:23Z</time>
      </trkpt>
      <trkpt lat="45.72195" lon="4.90442">
        <ele>258.84494</ele>
        <time>2012-03-27T18:23:34Z</time>
      </trkpt>
      <trkpt lat="45.7219" lon="4.90417">
        <ele>259.5288</ele>
        <time>2012-03-27T18:23:45Z</time>
      </trkpt>
      <trkpt lat="45.72179" lon="4.90392">
        <ele>259.98508</ele>
        <time>2012-03-27T18:23:57Z</time>
      </trkpt>
      <trkpt lat="45.72174" lon="4.90364">
        <ele>258.05014</ele>
        <time>2012-03-27T18:24:08Z</time>
      </trkpt>
      <trkpt lat="45.72166" lon="4.9034">
        <ele>252.66795</ele>
        <time>2012-03-27T18:24:18Z</time>
      </trkpt>
      <trkpt lat="45.72162" lon="4.90314">
        <ele>247.15031</ele>
        <time>2012-03-27T18:24:25Z</time>
      </trkpt>
      <trkpt lat="45.72154" lon="4.90288">
        <ele>239.80145</ele>
        <time>2012-03-27T18:24:39Z</time>
      </trkpt>
      <trkpt lat="45.72144" lon="4.90267">
        <ele>242.39218</ele>
        <time>2012-03-27T18:24:52Z</time>
      </trkpt>
      <trkpt lat="45.72132" lon="4.90245">
        <ele>244.09085</ele>
        <time>2012-03-27T18:25:03Z</time>
      </trkpt>
      <trkpt lat="45.72121" lon="4.90222">
        <ele>246.12784</ele>
        <time>2012-03-27T18:25:14Z</time>
      </trkpt>
      <trkpt lat="45.72104" lon="4.90206">
        <ele>248.27248</ele>
        <time>2012-03-27T18:25:26Z</time>
      </trkpt>
      <trkpt lat="45.72087" lon="4.90198">
        <ele>245.6343</ele>
        <time>2012-03-27T18:25:38Z</time>
      </trkpt>
      <trkpt lat="45.72066" lon="4.90196">
        <ele>242.94305</ele>
        <time>2012-03-27T18:25:49Z</time>
      </trkpt>
      <trkpt lat="45.72047" lon="4.902">
        <ele>241.75204</ele>
        <time>2012-03-27T18:26:04Z</time>
      </trkpt>
      <trkpt lat="45.72028" lon="4.90209">
        <ele>239.80244</ele>
        <time>2012-03-27T18:26:13Z</time>
      </trkpt>
      <trkpt lat="45.7201" lon="4.90214">
        <ele>239.12514</ele>
        <time>2012-03-27T18:26:24Z</time>
      </trkpt>
      <trkpt lat="45.71992" lon="4.90223">
        <ele>241.54163</ele>
        <time>2012-03-27T18:26:32Z</time>
      </trkpt>
      <trkpt lat="45.71977" lon="4.90242">
        <ele>241.30222</ele>
        <time>2012-03-27T18:26:42Z</time>
      </trkpt>
      <trkpt lat="45.71963" lon="4.90262">
        <ele>239.17345</ele>
        <time>2012-03-27T18:26:52Z</time>
      </trkpt>
      <trkpt lat="45.71952" lon="4.90286">
        <ele>237.59381</ele>
        <time>2012-03-27T18:27:03Z</time>
      </trkpt>
      <trkpt lat="45.71938" lon="4.90306">
        <ele>237.54535</ele>
        <time>2012-03-27T18:27:14Z</time>
      </trkpt>
      <trkpt lat="45.71923" lon="4.90322">
        <ele>235.11473</ele>
        <time>2012-03-27T18:27:26Z</time>
      </trkpt>
      <trkpt lat="45.71856" lon="4.90372">
        <ele>235.38979</ele>
        <time>2012-03-27T18:28:03Z</time>
      </trkpt>
      <trkpt lat="45.7184" lon="4.90385">
        <ele>238.19746</ele>
        <time>2012-03-27T18:28:12Z</time>
      </trkpt>
      <trkpt lat="45.71823" lon="4.90391">
        <ele>239.16756</ele>
        <time>2012-03-27T18:28:28Z</time>
      </trkpt>
      <trkpt lat="45.71804" lon="4.90393">
        <ele>245.41039</ele>
        <time>2012-03-27T18:28:39Z</time>
      </trkpt>
      <trkpt lat="45.71791" lon="4.90412">
        <ele>245.85814</ele>
        <time>2012-03-27T18:28:50Z</time>
      </trkpt>
      <trkpt lat="45.71775" lon="4.90428">
        <ele>245.9649</ele>
        <time>2012-03-27T18:28:59Z</time>
      </trkpt>
      <trkpt lat="45.71769" lon="4.90454">
        <ele>247.9176</ele>
        <time>2012-03-27T18:29:09Z</time>
      </trkpt>
      <trkpt lat="45.71772" lon="4.9048">
        <ele>248.12657</ele>
        <time>2012-03-27T18:29:18Z</time>
      </trkpt>
      <trkpt lat="45.71766" lon="4.90506">
        <ele>249.46649</ele>
        <time>2012-03-27T18:29:37Z</time>
      </trkpt>
      <trkpt lat="45.71769" lon="4.90532">
        <ele>248.00215</ele>
        <time>2012-03-27T18:29:48Z</time>
      </trkpt>
      <trkpt lat="45.71778" lon="4.90557">
        <ele>248.23799</ele>
        <time>2012-03-27T18:30:02Z</time>
      </trkpt>
      <trkpt lat="45.71784" lon="4.90584">
        <ele>248.45624</ele>
        <time>2012-03-27T18:30:13Z</time>
      </trkpt>
      <trkpt lat="45.71792" lon="4.90609">
        <ele>250.4753</ele>
        <time>2012-03-27T18:30:25Z</time>
      </trkpt>
      <trkpt lat="45.71805" lon="4.90629">
        <ele>251.5831</ele>
        <time>2012-03-27T18:30:37Z</time>
      </trkpt>
      <trkpt lat="45.71811" lon="4.90656">
        <ele>254.27896</ele>
        <time>2012-03-27T18:30:49Z</time>
      </trkpt>
      <trkpt lat="45.71825" lon="4.90674">
        <ele>254.01178</ele>
        <time>2012-03-27T18:31:00Z</time>
      </trkpt>
      <trkpt lat="45.71837" lon="4.90694">
        <ele>254.61</ele>
        <time>2012-03-27T18:31:12Z</time>
      </trkpt>
      <trkpt lat="45.71849" lon="4.90714">
        <ele>252.23656</ele>
        <time>2012-03-27T18:31:17Z</time>
      </trkpt>
      <trkpt lat="45.71852" lon="4.90741">
        <ele>248.07098</ele>
        <time>2012-03-27T18:31:31Z</time>
      </trkpt>
      <trkpt lat="45.7184" lon="4.90764">
        <ele>248.02167</ele>
        <time>2012-03-27T18:31:37Z</time>
      </trkpt>
      <trkpt lat="45.71832" lon="4.90789">
        <ele>248.59253</ele>
        <time>2012-03-27T18:31:47Z</time>
      </trkpt>
      <trkpt lat="45.71822" lon="4.90812">
        <ele>246.6559</ele>
        <time>2012-03-27T18:31:58Z</time>
      </trkpt>
      <trkpt lat="45.71812" lon="4.90837">
        <ele>248.67764</ele>
        <time>2012-03-27T18:32:10Z</time>
      </trkpt>
      <trkpt lat="45.71804" lon="4.90862">
        <ele>246.49985</ele>
        <time>2012-03-27T18:32:20Z</time>
      </trkpt>
      <trkpt lat="45.71797" lon="4.90887">
        <ele>251.55273</ele>
        <time>2012-03-27T18:32:36Z</time>
      </trkpt>
      <trkpt lat="45.71788" lon="4.9091">
        <ele>249.53438</ele>
        <time>2012-03-27T18:32:47Z</time>
      </trkpt>
      <trkpt lat="45.71776" lon="4.9093">
        <ele>249.03009</ele>
        <time>2012-03-27T18:32:57Z</time>
      </trkpt>
      <trkpt lat="45.7176" lon="4.90946">
        <ele>249.1367</ele>
        <time>2012-03-27T18:33:09Z</time>
      </trkpt>
      <trkpt lat="45.71749" lon="4.90966">
        <ele>249.0603</ele>
        <time>2012-03-27T18:33:23Z</time>
      </trkpt>
      <trkpt lat="45.71735" lon="4.90983">
        <ele>247.75452</ele>
        <time>2012-03-27T18:33:40Z</time>
      </trkpt>
    </trkseg>
  </trk>
</gpx>